Time;durP1;ratioP1;P1;durP2;ratioP2;P2;SDS_P1;SDS_P2;PMS_P1;PMS_P2;Temp;Humidity;BMP_temperature;BMP_pressure;BME280_temperature;BME280_humidity;BME280_pressure;Samples;Min_cycle;Max_cycle;Signal;HPM_P1;HPM_P2
2023/10/08 00:00:53;;;;;;;6.38;3.42;;;23.60;61.30;;;;;;7677992;22;80434;-64
2023/10/08 00:03:58;;;;;;;5.40;2.90;;;23.70;61.30;;;;;;7679916;22;80313;-63
2023/10/08 00:06:58;;;;;;;6.82;3.45;;;23.60;61.40;;;;;;7679767;22;80998;-63
2023/10/08 00:09:59;;;;;;;6.32;3.17;;;23.60;61.30;;;;;;7680103;22;80364;-63
2023/10/08 00:12:59;;;;;;;5.80;2.75;;;23.60;61.40;;;;;;7679100;22;80628;-63
2023/10/08 00:16:00;;;;;;;6.97;2.78;;;23.60;61.40;;;;;;7678577;22;80729;-64
2023/10/08 00:19:08;;;;;;;5.72;2.63;;;23.60;61.50;;;;;;7652992;22;80450;-64
2023/10/08 00:22:09;;;;;;;6.05;3.00;;;23.60;61.40;;;;;;7678297;22;80865;-67
2023/10/08 00:25:11;;;;;;;7.38;3.17;;;23.70;61.70;;;;;;7679000;22;80958;-66
2023/10/08 00:28:13;;;;;;;5.45;2.90;;;23.70;61.70;;;;;;7678677;22;80418;-63
2023/10/08 00:31:17;;;;;;;6.13;3.45;;;23.60;61.50;;;;;;7653286;22;81631;-65
2023/10/08 00:34:19;;;;;;;5.70;3.00;;;23.60;61.50;;;;;;7652927;22;81971;-65
2023/10/08 00:37:23;;;;;;;4.55;2.80;;;23.60;61.70;;;;;;7675816;22;80470;-64
2023/10/08 00:40:24;;;;;;;9.18;3.42;;;23.60;62.10;;;;;;7652848;22;83648;-63
2023/10/08 00:43:25;;;;;;;7.53;3.55;;;23.60;61.90;;;;;;7679766;22;80091;-64
2023/10/08 00:47:11;;;;;;;6.53;2.53;;;23.60;62.00;;;;;;7679614;22;80442;-63
2023/10/08 00:49:54;;;;;;;6.72;3.75;;;23.60;62.00;;;;;;7667321;22;80642;-63
2023/10/08 00:53:00;;;;;;;6.85;2.60;;;23.60;62.20;;;;;;7680228;22;80008;-62
2023/10/08 00:56:06;;;;;;;4.10;2.22;;;23.60;62.40;;;;;;7679107;22;80491;-58
2023/10/08 00:59:08;;;;;;;5.40;2.33;;;23.60;62.40;;;;;;7677704;22;80403;-58
2023/10/08 01:02:14;;;;;;;3.65;2.40;;;23.60;62.60;;;;;;7676644;22;80368;-58
2023/10/08 01:05:23;;;;;;;4.65;2.03;;;23.50;62.50;;;;;;7675257;22;80837;-59
2023/10/08 01:08:36;;;;;;;2.80;1.98;;;23.60;62.80;;;;;;7675006;22;86310;-59
2023/10/08 01:11:46;;;;;;;3.25;1.40;;;23.50;62.60;;;;;;7648060;22;83436;-59
2023/10/08 01:14:53;;;;;;;1.92;1.42;;;23.50;62.90;;;;;;7675316;22;80478;-57
2023/10/08 01:18:04;;;;;;;3.33;1.65;;;23.50;63.00;;;;;;7676011;22;80672;-58
2023/10/08 01:21:11;;;;;;;2.95;1.70;;;23.50;63.10;;;;;;7677340;22;80244;-60
2023/10/08 01:24:16;;;;;;;2.08;1.23;;;23.50;63.20;;;;;;7678070;22;80385;-58
2023/10/08 01:27:24;;;;;;;2.05;1.42;;;23.50;63.30;;;;;;7677656;22;80386;-59
2023/10/08 01:30:25;;;;;;;1.83;1.10;;;23.50;63.30;;;;;;7678183;22;80779;-63
2023/10/08 01:33:37;;;;;;;3.95;1.55;;;23.50;63.30;;;;;;7678813;22;80431;-63
2023/10/08 01:36:38;;;;;;;2.80;1.20;;;23.50;63.30;;;;;;7679012;22;80383;-63
2023/10/08 01:39:42;;;;;;;1.80;1.40;;;23.50;63.40;;;;;;7652596;22;83499;-63
2023/10/08 01:42:42;;;;;;;1.20;1.10;;;23.50;63.30;;;;;;7679859;22;80712;-63
2023/10/08 01:45:44;;;;;;;2.60;1.15;;;23.50;63.20;;;;;;7627980;22;83020;-63
2023/10/08 01:48:45;;;;;;;2.47;0.98;;;23.40;63.00;;;;;;7679145;22;80653;-57
2023/10/08 01:51:53;;;;;;;1.63;1.10;;;23.40;62.80;;;;;;7678994;22;81096;-59
2023/10/08 01:54:54;;;;;;;1.75;0.90;;;23.40;62.80;;;;;;7678272;22;81298;-58
2023/10/08 01:57:54;;;;;;;1.70;0.90;;;23.40;62.70;;;;;;7651313;22;81808;-58
2023/10/08 02:01:00;;;;;;;1.45;1.08;;;23.40;62.60;;;;;;7650613;22;83440;-58
2023/10/08 02:04:01;;;;;;;2.35;1.33;;;23.40;62.50;;;;;;7647084;22;82193;-59
2023/10/08 02:07:03;;;;;;;2.70;0.82;;;23.40;62.40;;;;;;7650308;22;82912;-59
2023/10/08 02:10:05;;;;;;;2.53;0.60;;;23.40;62.40;;;;;;7677233;22;80194;-59
2023/10/08 02:13:05;;;;;;;1.13;0.90;;;23.40;62.30;;;;;;7678358;22;80790;-58
2023/10/08 02:16:07;;;;;;;1.38;0.88;;;23.40;62.20;;;;;;7679148;22;80463;-59
2023/10/08 02:19:10;;;;;;;1.58;0.85;;;23.30;62.10;;;;;;7678007;22;80393;-58
2023/10/08 02:22:11;;;;;;;1.98;0.73;;;23.30;62.00;;;;;;7676868;22;80421;-59
2023/10/08 02:25:11;;;;;;;1.00;0.90;;;23.30;62.00;;;;;;7677939;22;80788;-59
2023/10/08 02:28:12;;;;;;;1.30;0.80;;;23.30;61.80;;;;;;7651044;22;81854;-58
2023/10/08 02:31:13;;;;;;;2.22;0.75;;;23.30;61.80;;;;;;7678268;22;80464;-59
2023/10/08 02:34:13;;;;;;;2.13;0.75;;;23.30;61.70;;;;;;7679056;22;80824;-59
2023/10/08 02:37:15;;;;;;;1.73;0.95;;;23.30;61.70;;;;;;7676789;22;80441;-60
2023/10/08 02:40:28;;;;;;;1.27;0.98;;;23.30;61.50;;;;;;7678219;22;80426;-60
2023/10/08 02:43:30;;;;;;;0.63;0.63;;;23.30;61.60;;;;;;7671180;22;80246;-67
2023/10/08 02:46:32;;;;;;;0.43;0.43;;;23.30;61.50;;;;;;7651130;22;81959;-67
2023/10/08 02:49:34;;;;;;;1.08;0.77;;;23.30;61.40;;;;;;7676908;22;80848;-67
2023/10/08 02:52:35;;;;;;;0.88;0.70;;;23.30;61.50;;;;;;7678288;22;80579;-67
2023/10/08 02:55:36;;;;;;;2.53;0.65;;;23.30;61.20;;;;;;7678055;22;80323;-66
2023/10/08 02:58:37;;;;;;;1.00;0.68;;;23.20;61.10;;;;;;7651152;22;83490;-68
2023/10/08 03:01:40;;;;;;;1.15;0.60;;;23.20;61.10;;;;;;7677836;22;80909;-67
2023/10/08 03:04:41;;;;;;;1.73;0.70;;;23.20;61.00;;;;;;7625405;22;82235;-64
2023/10/08 03:07:44;;;;;;;1.17;0.60;;;23.20;60.80;;;;;;7677896;22;80763;-65
2023/10/08 03:10:45;;;;;;;0.70;0.50;;;23.20;60.90;;;;;;7678574;22;81636;-65
2023/10/08 03:13:46;;;;;;;1.50;0.60;;;23.20;60.80;;;;;;7678086;22;80260;-64
2023/10/08 03:16:48;;;;;;;1.80;0.75;;;23.20;60.60;;;;;;7649688;22;83139;-66
2023/10/08 03:19:49;;;;;;;2.15;0.90;;;23.20;60.60;;;;;;7677805;22;80605;-65
2023/10/08 03:22:49;;;;;;;0.93;0.68;;;23.20;60.60;;;;;;7678712;22;83587;-58
2023/10/08 03:25:50;;;;;;;0.63;0.63;;;23.20;60.40;;;;;;7676018;22;81072;-58
2023/10/08 03:28:57;;;;;;;1.75;0.77;;;23.10;60.30;;;;;;7677840;22;81147;-57
2023/10/08 03:32:05;;;;;;;2.58;0.50;;;23.10;60.30;;;;;;7650378;22;82031;-57
2023/10/08 03:35:10;;;;;;;0.73;0.60;;;23.10;60.30;;;;;;7650625;22;81272;-55
2023/10/08 03:41:59;;;;;;;0.70;0.50;;;23.10;60.20;;;;;;7625269;22;85374;-58
2023/10/08 03:45:09;;;;;;;0.63;0.60;;;23.10;60.10;;;;;;7651349;22;80770;-59
2023/10/08 03:48:15;;;;;;;1.50;0.65;;;23.10;60.00;;;;;;7678356;22;80238;-59
2023/10/08 03:51:19;;;;;;;0.67;0.47;;;23.10;60.00;;;;;;7677086;22;80184;-59
2023/10/08 03:54:29;;;;;;;1.63;0.70;;;23.10;60.00;;;;;;7678093;22;80921;-58
2023/10/08 03:57:41;;;;;;;1.52;0.60;;;23.10;60.10;;;;;;7678752;22;81356;-58
2023/10/08 04:00:42;;;;;;;0.60;0.43;;;23.10;60.00;;;;;;7679848;22;80406;-59
2023/10/08 04:03:57;;;;;;;1.13;0.70;;;23.10;59.90;;;;;;7680030;22;80259;-58
2023/10/08 04:07:24;;;;;;;1.53;0.60;;;23.10;59.80;;;;;;7678626;22;80826;-58
2023/10/08 04:13:44;;;;;;;1.20;0.75;;;23.10;59.50;;;;;;7678609;22;80898;-59
2023/10/08 04:16:45;;;;;;;1.10;0.60;;;23.10;59.50;;;;;;7678059;22;80770;-70
2023/10/08 04:19:45;;;;;;;4.22;0.95;;;23.10;59.40;;;;;;7678779;22;80283;-70
2023/10/08 04:22:46;;;;;;;2.88;0.82;;;23.00;59.30;;;;;;7678574;22;80642;-68
2023/10/08 04:25:47;;;;;;;2.63;0.73;;;23.00;59.30;;;;;;7678815;22;80636;-68
2023/10/08 04:28:48;;;;;;;1.45;0.75;;;23.00;59.20;;;;;;7678231;22;82042;-67
2023/10/08 04:32:01;;;;;;;3.15;0.75;;;23.00;59.20;;;;;;7679939;22;80300;-67
2023/10/08 04:35:07;;;;;;;2.67;1.05;;;23.00;59.20;;;;;;7680658;22;80154;-59
2023/10/08 04:38:08;;;;;;;1.83;0.90;;;23.00;59.40;;;;;;7679379;22;80786;-59
2023/10/08 04:41:09;;;;;;;1.83;0.75;;;23.00;59.20;;;;;;7680781;22;80554;-57
2023/10/08 04:44:18;;;;;;;2.45;0.70;;;23.00;59.20;;;;;;7673462;22;80149;-57
2023/10/08 04:47:31;;;;;;;5.53;1.20;;;23.00;59.30;;;;;;7662897;22;85275;-59
2023/10/08 04:50:32;;;;;;;0.77;0.68;;;23.00;59.40;;;;;;7666254;22;81407;-57
2023/10/08 04:53:36;;;;;;;2.20;0.80;;;23.00;59.60;;;;;;7675184;22;80546;-59
2023/10/08 04:56:38;;;;;;;4.78;1.20;;;23.00;59.70;;;;;;7678594;22;80337;-58
2023/10/08 04:59:39;;;;;;;1.45;0.80;;;23.00;59.80;;;;;;7676257;22;80421;-59
2023/10/08 05:02:50;;;;;;;1.77;0.88;;;23.00;59.80;;;;;;7678077;22;80579;-57
2023/10/08 05:12:37;;;;;;;2.80;1.10;;;23.00;59.70;;;;;;7678504;22;80688;-68
2023/10/08 05:19:14;;;;;;;3.22;0.90;;;22.90;59.50;;;;;;7677768;22;80862;-69
2023/10/08 05:22:18;;;;;;;6.30;1.35;;;22.90;59.20;;;;;;7677665;22;81042;-67
2023/10/08 05:28:24;;;;;;;7.35;1.40;;;22.90;59.70;;;;;;7678693;22;81324;-69
2023/10/08 05:35:31;;;;;;;5.30;1.00;;;22.90;59.30;;;;;;7617904;22;79421;-67
2023/10/08 05:41:51;;;;;;;3.65;1.20;;;23.00;59.20;;;;;;7677355;22;85262;-66
2023/10/08 05:48:13;;;;;;;3.67;1.10;;;23.00;60.00;;;;;;7678665;22;80325;-66
2023/10/08 05:51:23;;;;;;;2.78;1.58;;;23.10;60.40;;;;;;7678467;22;80553;-70
2023/10/08 05:57:40;;;;;;;8.18;1.83;;;23.10;61.80;;;;;;7677514;22;80416;-60
2023/10/08 06:04:00;;;;;;;5.20;1.75;;;23.10;62.60;;;;;;7677317;22;80875;-66
2023/10/08 06:07:33;;;;;;;6.38;1.83;;;23.10;62.80;;;;;;7677019;22;80730;-63
2023/10/08 06:10:56;;;;;;;6.90;1.75;;;23.10;62.70;;;;;;7673632;22;80262;-65
2023/10/08 06:13:50;;;;;;;9.95;1.73;;;23.10;62.20;;;;;;7675606;22;80281;-62
2023/10/08 06:17:01;;;;;;;;;;;23.10;62.20;;;;;;7677700;22;80459;-65
2023/10/08 06:20:10;;;;;;;9.80;2.08;;;23.10;62.10;;;;;;7684263;22;80234;-65
2023/10/08 06:23:12;;;;;;;10.02;1.70;;;23.10;61.70;;;;;;7678841;22;80910;-65
2023/10/08 06:29:26;;;;;;;3.97;1.70;;;23.10;61.20;;;;;;7679689;22;80635;-67
2023/10/08 06:32:27;;;;;;;4.20;1.48;;;23.10;61.10;;;;;;7653555;22;84911;-71
2023/10/08 06:35:28;;;;;;;9.50;2.15;;;23.10;61.20;;;;;;7681275;22;80697;-68
2023/10/08 06:38:30;;;;;;;6.25;1.90;;;23.10;61.10;;;;;;7676730;22;81832;-70
2023/10/08 06:41:33;;;;;;;7.20;2.28;;;23.10;60.90;;;;;;7680444;22;80265;-70
2023/10/08 06:44:37;;;;;;;7.82;1.63;;;23.10;60.80;;;;;;7680476;22;80302;-65
2023/10/08 06:47:37;;;;;;;17.52;2.28;;;23.10;60.30;;;;;;7679862;22;80045;-66
2023/10/08 06:50:38;;;;;;;5.70;1.52;;;23.10;60.30;;;;;;7679754;22;80417;-65
2023/10/08 06:53:38;;;;;;;6.63;1.83;;;23.10;60.00;;;;;;7679286;22;80744;-63
2023/10/08 06:56:39;;;;;;;7.70;1.77;;;23.10;59.90;;;;;;7680196;22;79990;-66
2023/10/08 06:59:42;;;;;;;5.32;2.03;;;23.10;59.50;;;;;;7679972;22;80447;-66
2023/10/08 07:02:42;;;;;;;9.65;2.47;;;23.10;59.20;;;;;;7649512;22;80760;-57
2023/10/08 07:05:44;;;;;;;10.20;1.98;;;23.10;59.30;;;;;;7675310;22;80109;-55
2023/10/08 07:08:54;;;;;;;10.98;2.35;;;23.00;59.10;;;;;;7662362;22;80561;-57
2023/10/08 07:11:55;;;;;;;5.97;1.83;;;23.00;59.10;;;;;;7673661;22;80415;-56
2023/10/08 07:14:56;;;;;;;5.82;2.25;;;23.00;58.10;;;;;;7672594;22;80572;-57
2023/10/08 07:17:56;;;;;;;9.05;2.03;;;23.00;57.80;;;;;;7658447;22;81715;-58
2023/10/08 07:21:00;;;;;;;18.40;1.88;;;23.00;57.90;;;;;;7658295;22;80940;-57
2023/10/08 07:24:01;;;;;;;5.53;1.85;;;23.00;58.10;;;;;;7660593;22;80680;-58
2023/10/08 07:27:05;;;;;;;5.38;1.70;;;23.00;57.90;;;;;;7658620;22;80670;-57
2023/10/08 07:30:10;;;;;;;7.95;1.80;;;23.00;58.10;;;;;;7658772;22;80556;-58
2023/10/08 07:33:17;;;;;;;8.02;1.90;;;23.00;58.10;;;;;;7660194;22;80758;-56
2023/10/08 07:36:18;;;;;;;3.58;1.67;;;23.00;58.10;;;;;;7659021;22;80794;-56
2023/10/08 07:42:26;;;;;;;6.88;1.85;;;23.00;58.40;;;;;;7661716;22;80901;-57
2023/10/08 07:45:26;;;;;;;5.90;2.10;;;23.00;58.30;;;;;;7660664;22;80828;-58
2023/10/08 07:48:29;;;;;;;6.65;2.10;;;23.00;58.60;;;;;;7660353;22;80466;-52
2023/10/08 07:51:30;;;;;;;10.68;2.25;;;23.10;58.50;;;;;;7657744;22;81213;-53
2023/10/08 07:54:34;;;;;;;6.75;1.98;;;23.00;58.20;;;;;;7662814;22;81561;-57
2023/10/08 07:57:34;;;;;;;5.40;2.17;;;23.00;58.20;;;;;;7661554;22;81057;-77
2023/10/08 08:00:38;;;;;;;5.38;2.30;;;23.10;58.20;;;;;;7663399;22;81286;-68
2023/10/08 08:03:39;;;;;;;6.55;2.38;;;23.10;58.40;;;;;;7668699;22;81106;-67
2023/10/08 08:06:40;;;;;;;5.22;2.20;;;23.20;58.80;;;;;;7681554;22;80371;-68
2023/10/08 08:09:44;;;;;;;7.60;2.22;;;23.20;58.70;;;;;;7682045;22;81147;-62
2023/10/08 08:12:45;;;;;;;7.28;2.33;;;23.30;59.70;;;;;;7682030;22;79946;-67
2023/10/08 08:15:50;;;;;;;8.82;2.00;;;23.30;60.20;;;;;;7683381;22;80452;-68
2023/10/08 08:18:57;;;;;;;7.18;2.53;;;23.30;60.90;;;;;;7679659;22;81062;-65
2023/10/08 08:22:02;;;;;;;11.43;2.17;;;23.40;61.80;;;;;;7682070;22;80435;-72
2023/10/08 08:25:15;;;;;;;4.50;2.20;;;23.40;62.10;;;;;;7684825;22;80883;-67
2023/10/08 08:28:20;;;;;;;6.72;2.53;;;23.40;62.30;;;;;;7685970;22;81493;-71
2023/10/08 08:31:21;;;;;;;5.20;2.00;;;23.40;61.80;;;;;;7680236;22;81151;-67
2023/10/08 08:34:21;;;;;;;6.63;2.05;;;23.40;62.10;;;;;;7683114;22;80818;-61
2023/10/08 08:37:25;;;;;;;9.65;2.75;;;23.40;62.40;;;;;;7682556;22;80556;-61
2023/10/08 08:40:26;;;;;;;6.38;2.30;;;23.40;61.60;;;;;;7681902;22;80522;-61
2023/10/08 08:43:30;;;;;;;7.15;2.58;;;23.40;61.40;;;;;;7681444;22;80610;-61
2023/10/08 08:46:31;;;;;;;6.40;2.92;;;23.50;61.20;;;;;;7677214;22;81546;-60
2023/10/08 08:49:32;;;;;;;13.98;3.00;;;23.50;60.80;;;;;;7681064;22;80271;-61
2023/10/08 08:52:33;;;;;;;7.90;2.97;;;23.50;60.70;;;;;;7681414;22;80408;-60
2023/10/08 08:55:35;;;;;;;10.20;3.33;;;23.50;61.10;;;;;;7681467;22;81022;-64
2023/10/08 08:58:40;;;;;;;10.98;3.08;;;23.50;61.40;;;;;;7681709;22;80969;-64
2023/10/08 09:01:41;;;;;;;10.00;3.03;;;23.60;62.10;;;;;;7679053;22;80260;-60
2023/10/08 09:04:41;;;;;;;7.63;2.85;;;23.60;62.10;;;;;;7678767;22;80257;-64
2023/10/08 09:07:42;;;;;;;8.43;3.20;;;23.70;62.10;;;;;;7679667;22;80341;-64
2023/10/08 09:10:52;;;;;;;16.25;4.65;;;23.80;61.90;;;;;;7678042;22;80478;-64
2023/10/08 09:13:52;;;;;;;9.45;2.75;;;23.80;62.00;;;;;;7679100;22;80440;-64
2023/10/08 09:16:54;;;;;;;12.65;3.50;;;23.80;61.70;;;;;;7678721;22;80230;-63
2023/10/08 09:20:01;;;;;;;10.48;3.30;;;23.90;62.20;;;;;;6283553;27;76167;-64
2023/10/08 09:23:05;;;;;;;7.65;3.15;;;23.90;62.10;;;;;;6246766;27;80608;-66
2023/10/08 09:26:08;;;;;;;10.23;3.60;;;23.90;61.90;;;;;;6229960;27;80670;-66
2023/10/08 09:29:08;;;;;;;7.13;2.97;;;24.00;62.00;;;;;;6240738;27;83115;-61
2023/10/08 09:32:09;;;;;;;7.82;3.15;;;24.00;62.10;;;;;;6237555;27;80423;-67
2023/10/08 09:35:09;;;;;;;8.57;4.00;;;24.00;61.60;;;;;;6246955;27;80354;-66
2023/10/08 09:38:11;;;;;;;10.38;3.38;;;24.00;62.40;;;;;;6238976;27;80781;-64
2023/10/08 09:41:11;;;;;;;8.35;2.70;;;24.00;62.70;;;;;;6244414;27;80554;-65
2023/10/08 09:44:12;;;;;;;8.90;3.17;;;24.10;62.50;;;;;;6252276;27;80239;-66
2023/10/08 09:47:14;;;;;;;9.18;3.25;;;24.10;62.80;;;;;;6245470;27;80314;-60
2023/10/08 09:50:15;;;;;;;9.32;2.53;;;24.10;64.20;;;;;;6245188;27;79970;-62
2023/10/08 09:53:22;;;;;;;12.00;3.47;;;24.10;60.60;;;;;;6244514;27;80215;-65
2023/10/08 09:56:22;;;;;;;9.43;3.58;;;24.10;60.40;;;;;;6244718;27;80364;-63
2023/10/08 09:59:24;;;;;;;7.13;2.90;;;24.10;62.10;;;;;;6252567;27;80556;-63
2023/10/08 10:02:27;;;;;;;19.52;3.83;;;24.10;62.20;;;;;;6241073;27;80393;-68
2023/10/08 10:05:27;;;;;;;9.07;3.10;;;24.10;62.30;;;;;;6254908;27;82360;-66
2023/10/08 10:08:35;;;;;;;14.55;3.90;;;24.20;62.70;;;;;;6242122;27;84659;-64
2023/10/08 10:11:35;;;;;;;5.93;3.08;;;24.30;64.40;;;;;;6241652;27;83548;-64
2023/10/08 10:14:36;;;;;;;9.80;3.30;;;24.30;64.60;;;;;;6240334;27;81032;-64
2023/10/08 10:17:36;;;;;;;10.80;3.75;;;24.30;65.10;;;;;;6235371;27;80680;-66
2023/10/08 10:20:37;;;;;;;6.13;2.72;;;24.40;65.40;;;;;;6244333;27;80512;-70
2023/10/08 10:23:39;;;;;;;9.35;4.32;;;24.40;65.70;;;;;;6239965;27;80386;-64
2023/10/08 10:26:44;;;;;;;5.28;2.67;;;24.40;65.80;;;;;;6245733;27;81340;-65
2023/10/08 10:29:47;;;;;;;5.47;2.97;;;24.50;66.10;;;;;;6235155;27;83604;-64
2023/10/08 10:32:48;;;;;;;9.20;3.25;;;24.50;66.00;;;;;;6218895;27;80663;-65
2023/10/08 10:35:50;;;;;;;8.13;3.47;;;24.60;66.00;;;;;;6180675;28;81745;-60
2023/10/08 10:38:53;;;;;;;7.72;2.25;;;24.60;65.80;;;;;;6186273;28;82285;-65
2023/10/08 10:42:06;;;;;;;7.50;2.55;;;24.60;65.70;;;;;;6186553;27;82895;-65
2023/10/08 10:45:09;;;;;;;7.10;2.65;;;24.70;65.50;;;;;;6178501;28;80677;-65
2023/10/08 10:51:19;;;;;;;6.65;2.05;;;24.70;64.90;;;;;;6198413;28;81374;-62
2023/10/08 10:54:21;;;;;;;8.85;2.63;;;24.60;65.50;;;;;;6191859;27;81819;-63
2023/10/08 10:57:26;;;;;;;8.80;2.53;;;24.60;65.40;;;;;;6184244;28;81608;-64
2023/10/08 11:03:34;;;;;;;9.52;2.35;;;24.50;65.90;;;;;;6192104;28;81365;-72
2023/10/08 11:06:37;;;;;;;8.85;1.88;;;24.50;66.70;;;;;;6191608;28;85281;-69
2023/10/08 11:09:38;;;;;;;13.55;2.67;;;24.50;64.90;;;;;;6183620;28;81261;-71
2023/10/08 11:12:47;;;;;;;5.95;1.70;;;24.40;64.50;;;;;;6195128;27;81589;-69
2023/10/08 11:15:51;;;;;;;4.57;1.80;;;24.40;64.00;;;;;;6183482;28;81442;-72
2023/10/08 11:18:57;;;;;;;3.17;1.73;;;24.50;63.20;;;;;;6209329;28;81255;-72
2023/10/08 11:21:59;;;;;;;;;;;24.40;61.80;;;;;;6211039;27;81320;-72
2023/10/08 11:24:59;;;;;;;2.85;1.80;;;24.40;61.20;;;;;;6220362;28;80405;-65
2023/10/08 11:28:02;;;;;;;3.30;1.77;;;24.40;59.60;;;;;;6221438;28;81301;-65
2023/10/08 11:31:07;;;;;;;8.50;1.55;;;24.40;60.00;;;;;;6226812;28;81557;-61
2023/10/08 11:34:13;;;;;;;4.10;1.97;;;24.40;60.10;;;;;;6226866;28;80869;-66
2023/10/08 11:37:19;;;;;;;3.58;1.33;;;24.40;61.40;;;;;;6240655;27;80412;-71
2023/10/08 11:40:20;;;;;;;5.07;1.48;;;24.40;58.90;;;;;;6227886;27;80424;-70
2023/10/08 11:43:22;;;;;;;5.65;1.55;;;24.50;58.50;;;;;;6226415;27;81119;-70
2023/10/08 11:46:25;;;;;;;8.85;1.52;;;24.40;57.80;;;;;;6227674;27;80594;-71
2023/10/08 11:49:26;;;;;;;2.78;1.35;;;24.40;56.60;;;;;;6233013;28;81859;-69
2023/10/08 11:52:27;;;;;;;5.25;1.38;;;24.40;55.70;;;;;;6230979;28;81335;-73
2023/10/08 11:55:28;;;;;;;2.70;1.40;;;24.40;55.90;;;;;;6227673;28;80936;-75
2023/10/08 11:58:37;;;;;;;5.72;1.27;;;24.40;55.20;;;;;;6228028;27;81151;-78
2023/10/08 12:01:42;;;;;;;6.45;2.47;;;24.40;55.20;;;;;;6216683;28;82383;-66
2023/10/08 12:04:44;;;;;;;11.40;3.05;;;24.30;54.90;;;;;;6225119;27;80421;-66
2023/10/08 12:07:45;;;;;;;10.10;2.38;;;24.30;54.10;;;;;;6223433;28;83796;-64
2023/10/08 12:10:46;;;;;;;9.75;2.20;;;24.30;54.60;;;;;;6225961;28;80472;-67
2023/10/08 12:13:47;;;;;;;10.13;2.00;;;24.30;54.00;;;;;;6226080;28;80845;-67
2023/10/08 12:16:47;;;;;;;8.95;2.38;;;24.30;54.30;;;;;;6207087;28;81230;-66
2023/10/08 12:19:49;;;;;;;6.70;2.15;;;24.30;53.50;;;;;;6215871;28;81002;-70
2023/10/08 12:22:50;;;;;;;2.90;1.63;;;24.40;53.10;;;;;;6222122;28;82960;-74
2023/10/08 12:25:51;;;;;;;9.25;2.15;;;24.40;53.70;;;;;;6228797;28;80871;-70
2023/10/08 12:28:53;;;;;;;5.55;1.52;;;24.40;52.70;;;;;;6217557;28;82954;-73
2023/10/08 12:31:54;;;;;;;7.72;1.95;;;24.40;51.70;;;;;;6225248;28;82056;-70
2023/10/08 12:34:55;;;;;;;8.02;2.55;;;24.30;52.20;;;;;;6217579;28;80787;-73
2023/10/08 12:37:56;;;;;;;7.35;2.45;;;24.30;50.40;;;;;;6225780;28;81401;-72
2023/10/08 12:40:59;;;;;;;5.72;2.10;;;24.40;50.20;;;;;;6228464;28;81788;-77
2023/10/08 12:43:59;;;;;;;2.97;1.85;;;24.30;50.00;;;;;;6214859;28;80417;-70
2023/10/08 12:47:01;;;;;;;4.97;1.80;;;24.40;51.10;;;;;;6224107;28;80444;-71
2023/10/08 12:50:01;;;;;;;6.40;1.67;;;24.40;51.00;;;;;;6218536;28;80422;-70
2023/10/08 12:53:03;;;;;;;5.18;1.90;;;24.40;49.30;;;;;;6218193;28;80439;-67
2023/10/08 12:56:12;;;;;;;7.28;2.20;;;24.40;49.60;;;;;;6211763;28;84128;-66
2023/10/08 12:59:23;;;;;;;6.20;2.22;;;24.40;49.40;;;;;;6225081;28;81368;-73
2023/10/08 13:02:28;;;;;;;9.05;1.85;;;24.40;51.10;;;;;;6228248;27;80776;-72
2023/10/08 13:05:28;;;;;;;4.28;1.77;;;24.30;48.90;;;;;;6219152;27;83957;-69
2023/10/08 13:08:30;;;;;;;8.20;1.83;;;24.30;48.80;;;;;;6222781;28;80899;-66
2023/10/08 13:11:34;;;;;;;6.13;2.13;;;24.20;48.20;;;;;;6226472;28;80911;-71
2023/10/08 13:14:34;;;;;;;4.53;1.75;;;24.20;49.30;;;;;;6231477;28;80431;-68
2023/10/08 13:17:35;;;;;;;5.90;1.80;;;24.10;48.90;;;;;;6215707;28;85212;-63
2023/10/08 13:20:36;;;;;;;6.18;1.77;;;24.20;48.30;;;;;;6234186;27;81212;-63
2023/10/08 13:23:36;;;;;;;5.00;1.88;;;24.20;49.30;;;;;;6223964;28;82013;-63
2023/10/08 13:26:38;;;;;;;4.53;1.65;;;24.20;50.00;;;;;;6224886;27;81252;-62
2023/10/08 13:29:39;;;;;;;2.75;1.30;;;24.20;49.20;;;;;;6223506;28;80702;-62
2023/10/08 13:32:39;;;;;;;4.40;1.67;;;24.20;49.00;;;;;;6224141;28;81707;-63
2023/10/08 13:35:40;;;;;;;2.95;1.50;;;24.20;48.50;;;;;;6229268;28;84029;-58
2023/10/08 13:38:45;;;;;;;4.25;1.58;;;24.30;47.90;;;;;;6225887;28;80931;-60
2023/10/08 13:41:49;;;;;;;;;;;24.30;47.50;;;;;;6215153;28;80420;-62
2023/10/08 13:44:51;;;;;;;5.80;1.30;;;24.30;48.00;;;;;;6222836;28;82648;-60
2023/10/08 13:47:52;;;;;;;5.47;1.77;;;24.40;47.90;;;;;;6222329;28;81714;-61
2023/10/08 13:50:52;;;;;;;4.03;1.30;;;24.40;47.00;;;;;;6222180;28;81446;-60
2023/10/08 13:53:53;;;;;;;5.63;1.50;;;24.50;47.10;;;;;;6226829;27;80981;-59
2023/10/08 13:56:53;;;;;;;6.20;1.80;;;24.50;46.50;;;;;;6227643;27;80216;-60
2023/10/08 13:59:54;;;;;;;4.22;1.92;;;24.50;46.70;;;;;;6217313;27;81827;-61
2023/10/08 14:02:54;;;;;;;7.10;2.47;;;24.50;47.10;;;;;;6228372;28;80176;-62
2023/10/08 14:05:58;;;;;;;19.08;5.05;;;24.50;47.00;;;;;;6221760;27;86057;-63
2023/10/08 14:09:00;;;;;;;11.43;4.30;;;24.60;46.50;;;;;;6217283;28;84772;-63
2023/10/08 14:12:01;;;;;;;18.17;4.70;;;24.60;46.20;;;;;;6224478;27;81218;-62
2023/10/08 14:15:06;;;;;;;15.73;4.32;;;24.60;45.90;;;;;;6220746;27;80313;-62
2023/10/08 14:18:08;;;;;;;12.77;4.35;;;24.60;45.80;;;;;;6224394;28;81035;-61
2023/10/08 14:21:10;;;;;;;9.02;3.22;;;24.70;45.50;;;;;;6229907;28;80349;-62
2023/10/08 14:24:15;;;;;;;9.07;3.53;;;24.70;45.40;;;;;;6236630;28;80249;-77
2023/10/08 14:27:15;;;;;;;13.57;3.37;;;24.70;45.10;;;;;;6234889;27;80864;-72
2023/10/08 14:30:20;;;;;;;7.80;3.15;;;24.70;45.00;;;;;;6226424;28;81332;-75
2023/10/08 14:33:24;;;;;;;16.57;3.37;;;24.70;44.50;;;;;;6225318;28;85497;-78
2023/10/08 14:43:03;;;;;;;8.43;2.78;;;24.60;43.70;;;;;;6227475;28;81220;-73
2023/10/08 14:46:09;;;;;;;9.55;3.05;;;24.50;43.40;;;;;;6229402;28;80354;-72
2023/10/08 14:49:10;;;;;;;16.65;3.40;;;24.50;43.20;;;;;;6228841;28;80565;-73
2023/10/08 14:52:11;;;;;;;10.73;2.55;;;24.50;43.10;;;;;;6228117;28;82274;-72
2023/10/08 14:55:15;;;;;;;12.88;2.78;;;24.40;42.50;;;;;;6224790;27;82838;-71
2023/10/08 14:58:16;;;;;;;8.57;2.58;;;24.40;42.80;;;;;;6224707;27;80524;-71
2023/10/08 15:01:19;;;;;;;18.95;2.75;;;24.40;43.50;;;;;;6234356;28;81330;-71
2023/10/08 15:04:21;;;;;;;7.22;2.40;;;24.40;43.80;;;;;;6229838;28;80228;-68
2023/10/08 15:07:21;;;;;;;5.97;2.38;;;24.40;43.40;;;;;;6232121;28;83567;-76
2023/10/08 15:10:22;;;;;;;41.03;3.30;;;24.30;43.10;;;;;;6219753;27;81098;-72
2023/10/08 15:13:24;;;;;;;13.88;2.10;;;24.30;43.30;;;;;;6227515;27;80288;-74
2023/10/08 15:16:26;;;;;;;8.85;2.15;;;24.30;43.80;;;;;;6241673;27;81446;-74
2023/10/08 15:19:27;;;;;;;13.75;2.33;;;24.20;43.70;;;;;;6206164;28;81048;-68
2023/10/08 15:22:27;;;;;;;4.47;2.20;;;24.20;43.00;;;;;;6227074;28;80924;-70
2023/10/08 15:25:28;;;;;;;7.47;1.77;;;24.20;42.80;;;;;;6216176;28;80679;-72
2023/10/08 15:28:29;;;;;;;7.15;1.98;;;24.10;41.90;;;;;;6224025;28;81440;-72
2023/10/08 15:31:30;;;;;;;10.75;2.15;;;24.00;41.70;;;;;;6212752;28;80399;-72
2023/10/08 15:34:30;;;;;;;4.90;1.55;;;24.00;42.40;;;;;;6229059;28;81162;-76
2023/10/08 15:37:31;;;;;;;25.98;3.50;;;23.90;42.00;;;;;;6219139;27;81228;-70
2023/10/08 15:40:33;;;;;;;7.00;1.95;;;23.80;41.40;;;;;;6226784;28;80631;-70
2023/10/08 15:43:34;;;;;;;5.93;2.17;;;23.80;41.20;;;;;;6225384;28;80438;-70
2023/10/08 15:46:35;;;;;;;18.60;2.67;;;23.80;40.60;;;;;;6219406;27;85446;-65
2023/10/08 15:49:35;;;;;;;3.55;1.67;;;23.70;41.40;;;;;;6222999;28;80557;-64
2023/10/08 15:52:36;;;;;;;8.25;1.95;;;23.70;43.30;;;;;;6228388;28;81053;-69
2023/10/08 15:55:36;;;;;;;7.82;2.38;;;23.80;43.50;;;;;;6226412;27;80492;-60
2023/10/08 15:58:37;;;;;;;3.95;2.05;;;23.80;44.30;;;;;;6215860;28;80980;-60
2023/10/08 16:01:37;;;;;;;4.57;1.92;;;23.80;44.20;;;;;;6215842;28;80531;-61
2023/10/08 16:04:38;;;;;;;3.17;1.70;;;23.70;43.50;;;;;;6216043;28;80383;-59
2023/10/08 16:07:39;;;;;;;2.65;1.83;;;23.80;43.90;;;;;;6224685;28;84988;-61
2023/10/08 16:10:39;;;;;;;6.57;2.10;;;23.80;44.40;;;;;;6225874;28;80377;-60
2023/10/08 16:13:42;;;;;;;6.20;1.48;;;23.80;44.60;;;;;;6222091;27;80876;-60
2023/10/08 16:16:42;;;;;;;8.82;2.17;;;23.90;45.00;;;;;;6218117;27;80578;-58
2023/10/08 16:19:43;;;;;;;9.00;2.10;;;23.80;45.50;;;;;;6218485;28;82013;-59
2023/10/08 16:22:47;;;;;;;4.93;1.83;;;23.80;45.40;;;;;;6224678;28;80986;-62
2023/10/08 16:25:49;;;;;;;6.85;1.80;;;23.70;45.10;;;;;;6225095;28;80414;-61
2023/10/08 16:28:49;;;;;;;4.18;1.60;;;23.70;46.10;;;;;;6216036;28;80532;-60
2023/10/08 16:31:50;;;;;;;9.63;2.17;;;23.70;46.10;;;;;;6214792;28;81931;-63
2023/10/08 16:34:50;;;;;;;6.25;2.55;;;23.70;46.10;;;;;;6223877;27;80213;-62
2023/10/08 16:37:51;;;;;;;4.20;1.58;;;23.70;46.20;;;;;;6223157;27;80234;-61
2023/10/08 16:40:51;;;;;;;6.80;1.90;;;23.70;46.20;;;;;;6227201;28;80376;-62
2023/10/08 16:43:52;;;;;;;2.92;1.63;;;23.70;46.40;;;;;;6226588;28;80318;-63
2023/10/08 16:46:52;;;;;;;3.08;1.42;;;23.70;46.50;;;;;;6231012;28;80229;-63